Time;durP1;ratioP1;P1;durP2;ratioP2;P2;SDS_P1;SDS_P2;PMS_P1;PMS_P2;Temp;Humidity;BMP_temperature;BMP_pressure;BME280_temperature;BME280_humidity;BME280_pressure;Samples;Min_cycle;Max_cycle;Signal;HPM_P1;HPM_P2
2022/03/30 00:01:52;;;;;;;16.20;8.90;;;8.20;71.00;;;;;;5032153;28;20030;-57
2022/03/30 00:04:18;;;;;;;14.10;9.10;;;8.10;71.00;;;;;;5032134;28;20041;-58
2022/03/30 00:06:43;;;;;;;14.07;8.95;;;8.10;71.10;;;;;;5037704;28;20021;-58
2022/03/30 00:09:09;;;;;;;11.07;7.88;;;8.10;71.20;;;;;;5032375;28;20384;-57
2022/03/30 00:11:35;;;;;;;14.82;8.60;;;8.00;71.30;;;;;;5030443;28;20029;-57
2022/03/30 00:14:00;;;;;;;15.40;8.73;;;8.00;71.30;;;;;;5036481;28;20033;-58
2022/03/30 00:16:26;;;;;;;21.48;11.77;;;8.00;71.30;;;;;;5031978;28;20053;-58
2022/03/30 00:18:52;;;;;;;20.40;11.38;;;8.00;71.70;;;;;;5035632;28;20571;-58
2022/03/30 00:21:17;;;;;;;17.88;10.30;;;7.90;71.70;;;;;;5039296;28;20025;-58
2022/03/30 00:23:43;;;;;;;20.27;10.82;;;7.90;71.90;;;;;;5036221;28;20033;-57
2022/03/30 00:26:09;;;;;;;20.20;11.80;;;7.80;72.20;;;;;;5036101;28;20099;-58
2022/03/30 00:28:34;;;;;;;24.65;12.38;;;7.80;72.50;;;;;;5041760;28;20029;-58
2022/03/30 00:31:00;;;;;;;22.40;11.23;;;7.80;73.50;;;;;;5052058;28;20079;-57
2022/03/30 00:33:26;;;;;;;21.48;11.88;;;7.70;72.90;;;;;;5041072;28;20021;-58
2022/03/30 00:35:52;;;;;;;20.42;11.05;;;7.70;73.20;;;;;;5034374;28;20030;-58
2022/03/30 00:38:18;;;;;;;19.30;11.25;;;7.70;73.30;;;;;;5033500;28;20483;-58
2022/03/30 00:40:44;;;;;;;23.20;12.40;;;7.70;73.40;;;;;;5030434;28;20028;-58
2022/03/30 00:43:09;;;;;;;20.85;13.10;;;7.70;73.60;;;;;;5033152;28;20060;-58
2022/03/30 00:45:35;;;;;;;24.60;12.70;;;7.60;73.80;;;;;;5040420;28;20021;-57
2022/03/30 00:48:00;;;;;;;22.73;12.63;;;7.60;74.20;;;;;;5033004;28;20029;-58
2022/03/30 00:50:26;;;;;;;23.30;13.80;;;7.60;74.50;;;;;;5035735;28;20545;-57
2022/03/30 00:52:55;;;;;;;19.90;12.48;;;7.50;74.70;;;;;;5035909;28;20075;-58
2022/03/30 00:55:21;;;;;;;19.77;12.02;;;7.50;74.80;;;;;;5032267;28;20024;-57
2022/03/30 00:57:47;;;;;;;20.38;12.68;;;7.50;74.80;;;;;;5028780;28;20436;-57
2022/03/30 01:00:15;;;;;;;18.80;11.57;;;7.50;74.80;;;;;;5035255;28;20481;-57
2022/03/30 01:02:45;;;;;;;19.02;11.60;;;7.50;74.80;;;;;;5039627;28;20069;-58
2022/03/30 01:05:12;;;;;;;22.23;12.23;;;7.50;74.80;;;;;;5032837;28;20071;-57
2022/03/30 01:07:38;;;;;;;16.50;11.82;;;7.40;75.00;;;;;;5030000;28;20417;-58
2022/03/30 01:10:05;;;;;;;21.75;12.43;;;7.40;75.10;;;;;;5035080;28;20465;-58
2022/03/30 01:12:32;;;;;;;19.33;11.35;;;7.40;75.30;;;;;;5031970;28;20386;-58
2022/03/30 01:14:59;;;;;;;19.88;12.25;;;7.30;75.50;;;;;;5035474;28;20024;-57
2022/03/30 01:17:25;;;;;;;21.50;11.52;;;7.20;75.60;;;;;;5029671;28;20478;-57
2022/03/30 01:19:50;;;;;;;19.38;10.75;;;7.20;75.80;;;;;;5032414;28;20528;-58
2022/03/30 01:22:16;;;;;;;16.05;10.43;;;7.20;75.80;;;;;;5035258;28;20026;-57
2022/03/30 01:24:41;;;;;;;21.98;12.00;;;7.10;75.80;;;;;;5032294;28;20481;-58
2022/03/30 01:27:07;;;;;;;20.88;12.38;;;7.10;76.00;;;;;;5033702;28;20035;-58
2022/03/30 01:32:25;;;;;;;20.65;12.45;;;7.00;76.30;;;;;;5032217;28;20121;-58
2022/03/30 01:34:50;;;;;;;20.65;12.30;;;7.00;76.50;;;;;;5037764;28;20021;-57
2022/03/30 01:37:16;;;;;;;23.80;12.88;;;6.90;76.70;;;;;;5030005;28;20111;-57
2022/03/30 01:39:42;;;;;;;21.02;11.73;;;6.90;76.90;;;;;;5029348;28;20540;-58
2022/03/30 01:42:08;;;;;;;18.63;11.82;;;6.90;77.10;;;;;;5031922;28;20040;-57
2022/03/30 01:44:34;;;;;;;20.33;10.98;;;6.90;77.00;;;;;;5029195;28;20533;-58
2022/03/30 01:47:00;;;;;;;19.77;11.85;;;6.80;77.00;;;;;;5029376;28;20112;-58
2022/03/30 01:49:26;;;;;;;18.73;11.48;;;6.80;77.00;;;;;;5031983;28;20103;-58
2022/03/30 01:51:54;;;;;;;21.33;11.35;;;6.80;77.10;;;;;;5031861;28;20035;-57
2022/03/30 01:54:22;;;;;;;21.15;12.45;;;6.80;77.30;;;;;;5028753;28;20021;-58
2022/03/30 01:56:48;;;;;;;19.65;11.50;;;6.70;77.60;;;;;;5032205;28;20029;-58
2022/03/30 01:59:14;;;;;;;25.40;12.57;;;6.70;77.70;;;;;;5041945;28;20141;-58
2022/03/30 02:01:40;;;;;;;26.58;13.27;;;6.70;77.90;;;;;;5034208;28;20097;-58
2022/03/30 02:04:07;;;;;;;23.90;13.65;;;6.60;78.40;;;;;;5031748;28;20027;-58
2022/03/30 02:06:33;;;;;;;24.50;13.35;;;6.70;78.40;;;;;;5034258;28;20024;-57
2022/03/30 02:08:59;;;;;;;23.48;14.50;;;6.60;78.40;;;;;;5030022;28;20056;-57
2022/03/30 02:11:26;;;;;;;24.73;14.07;;;6.60;78.90;;;;;;5034099;28;20067;-57
2022/03/30 02:13:52;;;;;;;24.83;13.00;;;6.60;79.10;;;;;;5031779;28;20014;-58
2022/03/30 02:16:18;;;;;;;22.25;13.50;;;6.60;79.30;;;;;;5043472;28;20091;-57
2022/03/30 02:18:44;;;;;;;21.48;13.30;;;6.60;79.20;;;;;;5035160;28;20472;-57
2022/03/30 02:21:10;;;;;;;21.17;12.23;;;6.60;79.20;;;;;;5030159;28;20129;-58
2022/03/30 02:23:35;;;;;;;20.20;11.30;;;6.60;79.10;;;;;;5036730;28;20075;-58
2022/03/30 02:26:01;;;;;;;18.70;11.02;;;6.60;79.20;;;;;;5043483;28;20025;-58
2022/03/30 02:28:26;;;;;;;17.38;10.43;;;6.60;79.30;;;;;;5047644;28;20017;-58
2022/03/30 02:30:52;;;;;;;16.55;10.30;;;6.50;79.10;;;;;;5033341;28;20570;-58
2022/03/30 02:33:17;;;;;;;19.92;10.07;;;6.50;79.20;;;;;;5043572;28;20017;-57
2022/03/30 02:35:43;;;;;;;13.75;8.98;;;6.50;79.20;;;;;;5032149;28;20496;-57
2022/03/30 02:38:08;;;;;;;16.35;9.07;;;6.50;79.10;;;;;;5036425;28;20087;-58
2022/03/30 02:40:34;;;;;;;14.77;9.18;;;6.50;79.10;;;;;;5030903;28;20023;-58
2022/03/30 02:42:59;;;;;;;16.27;8.50;;;6.50;79.10;;;;;;5027916;28;20026;-57
2022/03/30 02:45:25;;;;;;;13.38;8.05;;;6.50;79.10;;;;;;5038009;28;20022;-58
2022/03/30 02:50:35;;;;;;;13.60;8.10;;;6.50;79.10;;;;;;5031245;28;20095;-57
2022/03/30 02:53:00;;;;;;;13.60;8.27;;;6.50;79.10;;;;;;5033265;28;20021;-58
2022/03/30 02:55:26;;;;;;;14.50;8.50;;;6.50;79.10;;;;;;5033702;28;20025;-57
2022/03/30 02:57:51;;;;;;;12.80;8.13;;;6.40;79.10;;;;;;5030783;28;20017;-57
2022/03/30 03:00:17;;;;;;;15.65;8.85;;;6.40;79.10;;;;;;5042999;28;20029;-56
2022/03/30 03:02:43;;;;;;;13.68;8.30;;;6.40;79.20;;;;;;5036148;28;20030;-58
2022/03/30 03:05:08;;;;;;;13.32;8.57;;;6.30;79.20;;;;;;5030840;28;20056;-57
2022/03/30 03:07:34;;;;;;;16.42;8.40;;;6.30;79.20;;;;;;5027980;28;20389;-57
2022/03/30 03:10:01;;;;;;;17.45;9.32;;;6.30;79.30;;;;;;5030488;28;20021;-57
2022/03/30 03:12:27;;;;;;;20.63;11.40;;;6.30;79.40;;;;;;5027902;28;20020;-58
2022/03/30 03:14:52;;;;;;;17.92;9.88;;;6.20;79.60;;;;;;5027944;28;20025;-57
2022/03/30 03:17:17;;;;;;;17.33;10.35;;;6.20;79.80;;;;;;5027521;28;20417;-57
2022/03/30 03:19:43;;;;;;;18.85;10.00;;;6.10;79.80;;;;;;5045810;28;20119;-57
2022/03/30 03:22:09;;;;;;;13.95;8.88;;;6.00;79.90;;;;;;5031794;28;20393;-57
2022/03/30 03:24:34;;;;;;;15.98;9.32;;;6.00;80.00;;;;;;5040125;28;20029;-57
2022/03/30 03:27:00;;;;;;;14.32;9.05;;;6.00;80.10;;;;;;5034466;28;20044;-57
2022/03/30 03:29:26;;;;;;;16.75;9.25;;;6.00;80.20;;;;;;5046919;28;20502;-57
2022/03/30 03:31:51;;;;;;;14.40;8.30;;;5.90;80.30;;;;;;5034512;28;20026;-57
2022/03/30 03:34:17;;;;;;;15.63;8.80;;;5.90;80.40;;;;;;5032837;28;20040;-57
2022/03/30 03:36:42;;;;;;;18.60;9.77;;;5.90;80.40;;;;;;5035373;28;20030;-57
2022/03/30 03:39:08;;;;;;;19.00;11.38;;;5.70;80.60;;;;;;5034243;28;20033;-57
2022/03/30 03:41:34;;;;;;;17.83;10.27;;;5.60;81.00;;;;;;5034205;28;20025;-57
2022/03/30 03:44:00;;;;;;;12.23;9.10;;;5.60;81.40;;;;;;5034554;28;20017;-57
2022/03/30 03:46:25;;;;;;;16.17;9.75;;;5.60;81.40;;;;;;5036379;28;20020;-58
2022/03/30 03:48:51;;;;;;;17.52;9.35;;;5.60;81.40;;;;;;5031663;28;20021;-58
2022/03/30 03:51:17;;;;;;;15.52;8.85;;;5.50;81.50;;;;;;5033999;28;20036;-57
2022/03/30 03:53:42;;;;;;;18.33;9.40;;;5.50;81.70;;;;;;5044725;28;20384;-58
2022/03/30 03:56:08;;;;;;;13.10;9.18;;;5.50;81.70;;;;;;5037412;28;20489;-58
2022/03/30 03:58:33;;;;;;;15.10;9.32;;;5.50;81.70;;;;;;5037746;28;20029;-58
2022/03/30 04:00:59;;;;;;;16.17;9.73;;;5.40;81.70;;;;;;5036898;28;20021;-58
2022/03/30 04:03:25;;;;;;;18.10;10.82;;;5.30;81.80;;;;;;5033475;28;20065;-57
2022/03/30 04:05:50;;;;;;;16.33;10.07;;;5.20;82.10;;;;;;5036814;28;20391;-58
2022/03/30 04:08:16;;;;;;;19.85;10.60;;;5.10;82.50;;;;;;5033905;28;20042;-58
2022/03/30 04:10:41;;;;;;;19.95;11.10;;;5.10;83.00;;;;;;5030842;28;20040;-58
2022/03/30 04:13:07;;;;;;;19.17;11.82;;;5.00;83.40;;;;;;5033686;28;20045;-58
2022/03/30 04:15:37;;;;;;;26.60;13.05;;;4.90;83.80;;;;;;5033635;28;20021;-57
2022/03/30 04:18:04;;;;;;;22.00;12.35;;;4.90;84.30;;;;;;5033707;28;20030;-58
2022/03/30 04:20:30;;;;;;;21.15;10.70;;;4.80;84.50;;;;;;5036250;28;20071;-58
2022/03/30 04:22:56;;;;;;;19.27;10.38;;;4.80;84.60;;;;;;5030569;28;20039;-57
2022/03/30 04:25:21;;;;;;;16.33;10.00;;;4.90;84.60;;;;;;5030416;28;20022;-58
2022/03/30 04:27:50;;;;;;;19.08;9.55;;;4.80;84.60;;;;;;5034912;28;20056;-58
2022/03/30 04:30:17;;;;;;;17.17;9.20;;;4.90;84.60;;;;;;5032858;28;20060;-57
2022/03/30 04:32:44;;;;;;;14.32;9.10;;;4.80;84.40;;;;;;5036292;28;20500;-58
2022/03/30 04:35:11;;;;;;;18.58;9.90;;;4.80;84.50;;;;;;5038812;28;20502;-58
2022/03/30 04:37:38;;;;;;;17.88;10.30;;;4.80;84.60;;;;;;5034617;28;20027;-58
2022/03/30 04:40:04;;;;;;;16.92;9.90;;;4.70;84.70;;;;;;5030503;28;20132;-58
2022/03/30 04:42:30;;;;;;;15.30;8.82;;;4.70;84.80;;;;;;5033132;28;20021;-57
2022/03/30 04:44:55;;;;;;;14.65;8.25;;;4.70;85.00;;;;;;5042713;28;20269;-58
2022/03/30 04:47:21;;;;;;;22.67;10.10;;;4.60;85.00;;;;;;5030127;28;20025;-58
2022/03/30 04:49:46;;;;;;;14.68;8.30;;;4.60;85.10;;;;;;5037069;28;20500;-57
2022/03/30 04:52:12;;;;;;;15.07;8.75;;;4.60;85.10;;;;;;5031795;28;20042;-58
2022/03/30 04:54:37;;;;;;;17.88;9.20;;;4.50;85.20;;;;;;5029982;28;20069;-57
2022/03/30 04:57:03;;;;;;;17.98;9.88;;;4.50;85.20;;;;;;5049230;28;20052;-57
2022/03/30 04:59:29;;;;;;;16.75;9.40;;;4.60;85.30;;;;;;5033456;28;20036;-58
2022/03/30 05:01:54;;;;;;;16.92;9.65;;;4.50;85.40;;;;;;5034363;28;20029;-57
2022/03/30 05:04:20;;;;;;;12.10;8.02;;;4.50;85.50;;;;;;5033327;28;20487;-57
2022/03/30 05:06:46;;;;;;;17.70;9.18;;;4.40;85.70;;;;;;5033647;28;20141;-58
2022/03/30 05:09:12;;;;;;;17.65;8.40;;;4.40;85.80;;;;;;5033797;28;20112;-57
2022/03/30 05:11:39;;;;;;;15.48;7.60;;;4.40;85.90;;;;;;5033420;28;20032;-58
2022/03/30 05:14:05;;;;;;;15.27;9.55;;;4.30;85.90;;;;;;5033137;28;20021;-57
2022/03/30 05:16:31;;;;;;;15.55;9.10;;;4.30;85.90;;;;;;5031873;28;20053;-57
2022/03/30 05:18:56;;;;;;;15.30;9.30;;;4.20;86.10;;;;;;5033227;28;20029;-57
2022/03/30 05:21:22;;;;;;;16.13;8.68;;;4.20;86.30;;;;;;5033336;28;20087;-57
2022/03/30 05:23:48;;;;;;;16.20;8.10;;;4.20;86.40;;;;;;5033145;28;20493;-57
2022/03/30 05:26:14;;;;;;;15.98;8.63;;;4.20;86.40;;;;;;5032618;28;20029;-57
2022/03/30 05:28:40;;;;;;;14.38;7.88;;;4.20;86.40;;;;;;5032674;28;20475;-58
2022/03/30 05:31:06;;;;;;;14.73;8.82;;;4.20;86.40;;;;;;5032572;28;20057;-57
2022/03/30 05:33:32;;;;;;;15.68;8.38;;;4.10;86.40;;;;;;5032800;28;20080;-57
2022/03/30 05:35:57;;;;;;;12.60;8.45;;;4.10;86.50;;;;;;5035233;28;20116;-57
2022/03/30 05:38:24;;;;;;;15.32;8.75;;;4.00;86.40;;;;;;5033008;28;20037;-57
2022/03/30 05:40:50;;;;;;;14.98;7.82;;;4.00;86.60;;;;;;5032807;28;20436;-58
2022/03/30 05:43:16;;;;;;;14.18;7.95;;;4.00;86.80;;;;;;5032873;28;20025;-57
2022/03/30 05:45:42;;;;;;;15.68;9.07;;;4.00;86.90;;;;;;5032940;28;20021;-59
2022/03/30 05:48:08;;;;;;;14.63;8.57;;;3.90;86.90;;;;;;5049222;28;20106;-57
2022/03/30 05:50:34;;;;;;;14.50;8.50;;;4.00;87.00;;;;;;5045529;28;20476;-57
2022/03/30 05:53:00;;;;;;;16.98;9.50;;;4.00;87.00;;;;;;5045265;28;20029;-57
2022/03/30 05:55:25;;;;;;;15.57;8.93;;;4.00;87.20;;;;;;5045450;28;20033;-57
2022/03/30 05:57:51;;;;;;;17.23;9.20;;;4.00;87.20;;;;;;5041097;28;20032;-57
2022/03/30 06:00:16;;;;;;;17.80;10.18;;;4.00;87.20;;;;;;5041557;28;20035;-57
2022/03/30 06:02:42;;;;;;;19.67;11.63;;;4.00;87.20;;;;;;5051811;28;20029;-57
2022/03/30 06:05:09;;;;;;;19.75;11.30;;;3.90;87.50;;;;;;5052701;28;20021;-57
2022/03/30 06:07:35;;;;;;;18.52;10.27;;;4.00;87.90;;;;;;5052558;28;20028;-57
2022/03/30 06:10:00;;;;;;;19.27;9.60;;;3.90;88.10;;;;;;5048565;28;20033;-57
2022/03/30 06:12:26;;;;;;;14.05;9.02;;;4.00;88.30;;;;;;5052332;28;20381;-56
2022/03/30 06:14:52;;;;;;;15.98;9.82;;;4.10;88.30;;;;;;5051210;28;20048;-56
2022/03/30 06:17:19;;;;;;;18.48;9.23;;;4.10;88.30;;;;;;5052247;28;20464;-57
2022/03/30 06:19:52;;;;;;;18.73;10.20;;;4.10;88.30;;;;;;5052404;28;20055;-57
2022/03/30 06:22:18;;;;;;;17.17;9.43;;;4.20;88.50;;;;;;5050557;28;20373;-57
2022/03/30 06:24:44;;;;;;;17.73;10.30;;;4.20;88.50;;;;;;5032659;28;20108;-58
2022/03/30 06:27:11;;;;;;;17.42;10.70;;;4.20;88.60;;;;;;5050668;28;20017;-57
2022/03/30 06:29:38;;;;;;;16.27;10.45;;;4.20;88.80;;;;;;5050390;28;20106;-57
2022/03/30 06:32:04;;;;;;;17.45;10.77;;;4.30;89.00;;;;;;5046601;28;20018;-57
2022/03/30 06:34:31;;;;;;;16.92;10.35;;;4.30;89.00;;;;;;5050459;28;20035;-57
2022/03/30 06:36:57;;;;;;;17.90;9.63;;;4.40;89.20;;;;;;5046448;28;20033;-58
2022/03/30 06:39:22;;;;;;;16.17;9.95;;;4.40;89.30;;;;;;5047457;28;20024;-57
2022/03/30 06:41:48;;;;;;;18.38;10.27;;;4.40;89.40;;;;;;5047684;28;20051;-58
2022/03/30 06:44:15;;;;;;;17.45;10.27;;;4.50;89.60;;;;;;5050073;28;20028;-58
2022/03/30 06:46:41;;;;;;;19.75;10.43;;;4.50;89.60;;;;;;5050100;28;20013;-57
2022/03/30 06:49:07;;;;;;;17.00;9.68;;;4.60;89.70;;;;;;5050498;28;20039;-57
2022/03/30 06:51:33;;;;;;;21.13;11.20;;;4.60;89.70;;;;;;5031232;28;20022;-56
2022/03/30 06:53:59;;;;;;;22.05;12.18;;;4.70;90.00;;;;;;5038777;28;20021;-56
2022/03/30 06:56:25;;;;;;;23.13;13.00;;;4.70;90.00;;;;;;5045760;28;20032;-57
2022/03/30 06:58:51;;;;;;;18.02;11.35;;;4.70;90.10;;;;;;5049922;28;20040;-57
2022/03/30 07:01:17;;;;;;;24.27;12.85;;;4.80;90.30;;;;;;5051773;28;20487;-57
2022/03/30 07:03:42;;;;;;;19.45;12.13;;;4.80;90.60;;;;;;5051419;28;20461;-57
2022/03/30 07:06:08;;;;;;;20.27;12.30;;;4.80;90.40;;;;;;5047988;28;20142;-57
2022/03/30 07:11:17;;;;;;;21.67;12.60;;;4.90;90.70;;;;;;5048456;28;20031;-57
2022/03/30 07:13:43;;;;;;;28.13;15.32;;;5.00;90.80;;;;;;5049811;28;20033;-57
2022/03/30 07:16:09;;;;;;;22.35;12.23;;;5.10;91.10;;;;;;5051381;28;20048;-57
2022/03/30 07:18:34;;;;;;;21.88;13.15;;;5.10;91.20;;;;;;5050670;28;20040;-57
2022/03/30 07:21:00;;;;;;;25.25;12.93;;;5.20;91.30;;;;;;5051327;28;20500;-57
2022/03/30 07:23:25;;;;;;;23.02;13.02;;;5.30;91.40;;;;;;5051102;28;20498;-57
2022/03/30 07:25:52;;;;;;;22.92;12.77;;;5.40;91.50;;;;;;5051104;28;20075;-57
2022/03/30 07:28:17;;;;;;;23.55;13.10;;;5.50;91.60;;;;;;5050649;28;20037;-56
2022/03/30 07:30:45;;;;;;;24.27;13.73;;;5.50;91.70;;;;;;5051366;28;20025;-56
2022/03/30 07:33:11;;;;;;;23.45;12.82;;;5.60;91.90;;;;;;5050939;28;20029;-56
2022/03/30 07:35:39;;;;;;;21.27;12.60;;;5.70;91.90;;;;;;5050579;28;20465;-57
2022/03/30 07:38:05;;;;;;;25.48;14.02;;;5.80;91.90;;;;;;5050828;28;20039;-57
2022/03/30 07:40:31;;;;;;;26.92;13.50;;;5.90;92.00;;;;;;5050777;28;20021;-57
2022/03/30 07:42:57;;;;;;;24.50;14.10;;;6.00;92.00;;;;;;5049604;28;20017;-57
2022/03/30 07:45:24;;;;;;;21.35;12.40;;;6.10;92.10;;;;;;5046680;28;20036;-57
2022/03/30 07:47:51;;;;;;;19.58;11.45;;;6.20;92.00;;;;;;5047014;28;20017;-57
2022/03/30 07:50:18;;;;;;;26.63;14.85;;;6.30;91.90;;;;;;5048452;28;20017;-57
2022/03/30 07:52:43;;;;;;;21.45;13.55;;;6.40;92.10;;;;;;5046249;28;20022;-57
2022/03/30 07:55:11;;;;;;;26.63;13.70;;;6.50;92.20;;;;;;5043946;28;20021;-57
2022/03/30 07:57:39;;;;;;;25.73;12.63;;;6.60;92.20;;;;;;5048629;28;20060;-57
2022/03/30 08:00:10;;;;;;;24.73;14.00;;;6.70;92.10;;;;;;5048233;28;20086;-57
2022/03/30 08:02:36;;;;;;;24.02;12.98;;;6.80;92.00;;;;;;5047946;28;20029;-56
2022/03/30 08:05:02;;;;;;;19.80;11.82;;;6.90;91.90;;;;;;5051231;28;20034;-57
2022/03/30 08:07:30;;;;;;;17.42;11.30;;;6.90;91.80;;;;;;5049943;28;20384;-57
2022/03/30 08:09:56;;;;;;;21.20;12.10;;;7.00;91.60;;;;;;5053001;28;20027;-57
2022/03/30 08:12:22;;;;;;;19.52;12.10;;;7.20;91.60;;;;;;5052741;28;20025;-57
2022/03/30 08:14:48;;;;;;;25.20;12.85;;;7.30;91.50;;;;;;5047076;28;20022;-57
2022/03/30 08:17:14;;;;;;;25.88;15.13;;;7.40;91.50;;;;;;5052444;28;20095;-57
2022/03/30 08:19:40;;;;;;;21.48;12.85;;;7.50;91.50;;;;;;5046861;28;20033;-57
2022/03/30 08:25:06;;;;;;;24.25;13.85;;;7.60;91.30;;;;;;5048393;28;20036;-57
2022/03/30 08:27:33;;;;;;;21.17;13.32;;;7.70;91.30;;;;;;5054165;28;20025;-57
2022/03/30 08:30:00;;;;;;;24.27;13.88;;;7.80;91.40;;;;;;5052586;28;20488;-57
2022/03/30 08:32:26;;;;;;;22.35;13.60;;;7.90;91.30;;;;;;5054166;28;20025;-57
2022/03/30 08:34:54;;;;;;;21.20;13.38;;;8.00;91.30;;;;;;5054232;28;20405;-57
2022/03/30 08:37:20;;;;;;;18.65;11.68;;;8.10;91.10;;;;;;5053835;28;20428;-57
2022/03/30 08:39:48;;;;;;;16.80;10.98;;;8.20;91.20;;;;;;5053708;28;20037;-57
2022/03/30 08:42:15;;;;;;;18.85;11.15;;;8.40;90.70;;;;;;5054165;28;20017;-57
2022/03/30 08:44:41;;;;;;;20.10;11.93;;;8.60;90.50;;;;;;5053977;28;20025;-57
2022/03/30 08:47:08;;;;;;;18.95;11.85;;;8.70;90.20;;;;;;5052627;28;20477;-57
2022/03/30 08:49:35;;;;;;;18.27;11.30;;;8.90;90.00;;;;;;5053414;28;20036;-57
2022/03/30 08:52:06;;;;;;;24.80;11.98;;;9.10;89.00;;;;;;5052728;28;20021;-57
2022/03/30 08:54:33;;;;;;;16.58;10.40;;;9.20;87.90;;;;;;5046377;28;20053;-57
2022/03/30 08:56:59;;;;;;;21.58;11.40;;;9.30;87.30;;;;;;5049771;28;20021;-57
2022/03/30 08:59:25;;;;;;;19.20;11.82;;;9.50;86.60;;;;;;5052241;28;20029;-57
2022/03/30 09:01:53;;;;;;;19.48;10.88;;;9.60;85.30;;;;;;5053687;28;20029;-57
2022/03/30 09:04:19;;;;;;;18.75;11.02;;;9.70;84.70;;;;;;5053638;28;20083;-57
2022/03/30 09:06:54;;;;;;;22.10;12.30;;;9.80;84.30;;;;;;5053726;28;20473;-57
2022/03/30 09:09:35;;;;;;;15.77;11.05;;;9.90;83.30;;;;;;5053409;28;20040;-58
2022/03/30 09:12:06;;;;;;;17.45;11.05;;;10.10;83.00;;;;;;5052263;28;20111;-57
2022/03/30 09:14:34;;;;;;;17.98;11.10;;;10.20;82.10;;;;;;5053516;28;20043;-58
2022/03/30 09:17:02;;;;;;;15.90;10.43;;;10.30;81.60;;;;;;5052208;28;20045;-58
2022/03/30 09:19:30;;;;;;;17.85;10.07;;;10.30;81.00;;;;;;5052540;28;20033;-57
2022/03/30 09:21:59;;;;;;;16.52;10.60;;;10.30;81.00;;;;;;5049226;28;20028;-57
2022/03/30 09:24:28;;;;;;;17.38;10.50;;;10.30;80.50;;;;;;5050455;28;20049;-57
2022/03/30 09:26:54;;;;;;;19.80;10.38;;;10.30;79.90;;;;;;5051189;28;20400;-57
2022/03/30 09:29:22;;;;;;;15.05;10.07;;;10.30;79.80;;;;;;5050048;28;20029;-57
2022/03/30 09:31:49;;;;;;;19.63;11.05;;;10.40;79.90;;;;;;5048746;28;20108;-57
2022/03/30 09:34:15;;;;;;;18.73;10.38;;;10.40;79.20;;;;;;5050187;28;20071;-57
2022/03/30 09:36:42;;;;;;;20.67;12.38;;;10.60;79.00;;;;;;5052867;28;20079;-57
2022/03/30 09:39:28;;;;;;;19.75;12.45;;;10.70;78.30;;;;;;5052782;28;20033;-57
2022/03/30 09:41:56;;;;;;;18.55;10.63;;;10.80;77.70;;;;;;5053126;28;20021;-58
2022/03/30 09:44:22;;;;;;;17.23;11.43;;;10.90;77.70;;;;;;5051703;28;20064;-57
2022/03/30 09:46:56;;;;;;;17.45;10.27;;;11.10;76.80;;;;;;5052850;28;20159;-57
2022/03/30 09:49:45;;;;;;;14.45;9.38;;;11.30;76.10;;;;;;5050169;28;20029;-57
2022/03/30 09:52:17;;;;;;;16.23;10.07;;;11.50;75.60;;;;;;5049394;28;20047;-58
2022/03/30 09:54:50;;;;;;;14.63;9.30;;;11.60;75.00;;;;;;5052164;28;20078;-57
2022/03/30 09:57:22;;;;;;;12.15;8.80;;;11.70;74.30;;;;;;5052532;28;20028;-57
2022/03/30 10:00:07;;;;;;;13.70;9.02;;;11.80;74.00;;;;;;5052347;28;20063;-58
2022/03/30 10:02:35;;;;;;;16.25;9.48;;;12.10;73.40;;;;;;5052739;28;20534;-58
2022/03/30 10:05:03;;;;;;;12.82;8.60;;;12.20;72.40;;;;;;5052564;28;20029;-57
2022/03/30 10:07:29;;;;;;;11.82;8.70;;;12.50;71.90;;;;;;5052195;28;20016;-58
2022/03/30 10:09:56;;;;;;;15.75;8.93;;;12.60;71.00;;;;;;5052402;28;20095;-57
2022/03/30 10:12:26;;;;;;;11.60;8.02;;;12.60;70.50;;;;;;5052315;28;20112;-57
2022/03/30 10:14:53;;;;;;;12.55;7.60;;;12.70;69.70;;;;;;5052829;28;20028;-58
2022/03/30 10:17:19;;;;;;;10.32;6.90;;;12.80;69.70;;;;;;5050440;28;20075;-57
2022/03/30 10:19:46;;;;;;;10.73;6.53;;;12.90;69.60;;;;;;5046478;28;20040;-57
2022/03/30 10:22:39;;;;;;;10.60;7.40;;;13.00;69.40;;;;;;5047112;28;20322;-58
2022/03/30 10:25:23;;;;;;;11.27;6.93;;;13.30;68.70;;;;;;5030091;28;20025;-57
2022/03/30 10:27:57;;;;;;;11.20;7.70;;;13.40;68.10;;;;;;5043593;28;20024;-58
2022/03/30 10:30:26;;;;;;;12.60;7.25;;;13.80;67.60;;;;;;5054561;28;20025;-58
2022/03/30 10:32:58;;;;;;;11.53;8.47;;;13.90;66.60;;;;;;5046586;28;20021;-57
2022/03/30 10:35:39;;;;;;;11.20;7.25;;;14.10;65.70;;;;;;5044307;28;20052;-58
2022/03/30 10:38:05;;;;;;;11.65;7.90;;;14.30;65.30;;;;;;5048319;28;20020;-57
2022/03/30 10:40:30;;;;;;;11.02;7.60;;;14.50;64.70;;;;;;5032183;28;20112;-57
2022/03/30 10:43:02;;;;;;;14.20;8.68;;;14.60;64.20;;;;;;5032254;28;20025;-58
2022/03/30 10:45:57;;;;;;;11.70;8.38;;;14.60;63.00;;;;;;5031997;28;20013;-58
2022/03/30 10:48:37;;;;;;;11.02;7.13;;;14.80;63.20;;;;;;5030368;28;20569;-58
2022/03/30 10:51:08;;;;;;;10.90;6.95;;;15.10;63.30;;;;;;5031896;28;20132;-58
2022/03/30 10:53:34;;;;;;;11.85;7.90;;;15.60;63.10;;;;;;5031903;28;20104;-58
2022/03/30 10:56:09;;;;;;;10.10;6.63;;;15.80;60.90;;;;;;5047253;28;20529;-58
2022/03/30 10:58:52;;;;;;;6.72;4.95;;;16.40;60.10;;;;;;5049174;28;20021;-58
2022/03/30 11:01:22;;;;;;;11.63;6.90;;;17.70;58.80;;;;;;5042082;28;20566;-58
2022/03/30 11:04:18;;;;;;;8.15;5.72;;;18.20;55.40;;;;;;5047082;28;20013;-58
2022/03/30 11:06:56;;;;;;;6.47;4.65;;;18.80;55.00;;;;;;5044207;28;20099;-59
2022/03/30 11:09:28;;;;;;;7.60;5.65;;;19.50;54.20;;;;;;5047053;28;20025;-58
2022/03/30 11:12:18;;;;;;;6.80;4.45;;;20.40;52.50;;;;;;5055459;28;20420;-58
2022/03/30 11:15:00;;;;;;;4.45;3.50;;;22.20;50.60;;;;;;5044921;28;20037;-59
2022/03/30 11:17:35;;;;;;;7.32;4.18;;;24.80;46.70;;;;;;5044372;28;20132;-59
2022/03/30 11:20:05;;;;;;;5.15;2.70;;;26.40;44.00;;;;;;5048715;28;20054;-59
2022/03/30 11:22:32;;;;;;;4.07;3.05;;;27.40;40.50;;;;;;5050437;28;20032;-59
2022/03/30 11:25:20;;;;;;;4.25;2.83;;;28.20;38.90;;;;;;5051594;28;20044;-59
2022/03/30 11:28:07;;;;;;;4.28;2.63;;;29.20;37.00;;;;;;5051141;28;20033;-59
2022/03/30 11:30:37;;;;;;;4.97;2.38;;;29.90;33.50;;;;;;5051360;28;20476;-59
2022/03/30 11:33:22;;;;;;;3.60;2.35;;;30.60;33.30;;;;;;5051634;28;20063;-59
2022/03/30 11:35:49;;;;;;;4.40;2.95;;;31.60;32.50;;;;;;5051261;28;20025;-59
2022/03/30 11:38:28;;;;;;;3.20;2.90;;;32.40;31.20;;;;;;5051238;28;20029;-59
2022/03/30 11:41:13;;;;;;;;;;;32.60;30.10;;;;;;5055236;28;20021;-59
2022/03/30 11:46:30;;;;;;;3.30;2.70;;;33.10;29.70;;;;;;5055413;28;20044;-59
2022/03/30 11:49:06;;;;;;;5.03;2.15;;;33.50;29.80;;;;;;5050776;28;20511;-59
2022/03/30 11:51:32;;;;;;;2.70;2.10;;;34.30;29.60;;;;;;5050219;28;20021;-59
2022/03/30 11:54:14;;;;;;;5.80;3.35;;;35.00;29.40;;;;;;5034549;28;20032;-59
2022/03/30 11:56:40;;;;;;;4.18;2.85;;;35.10;28.10;;;;;;5049713;28;20067;-59
2022/03/30 11:59:06;;;;;;;4.45;3.20;;;34.70;28.10;;;;;;5050221;28;20017;-59
2022/03/30 12:01:34;;;;;;;4.63;2.78;;;34.60;28.10;;;;;;5047827;28;20111;-59
2022/03/30 12:04:00;;;;;;;4.93;3.35;;;35.20;28.70;;;;;;5051618;28;20496;-59
2022/03/30 12:06:26;;;;;;;4.40;2.60;;;36.10;28.20;;;;;;5053139;28;20029;-59
2022/03/30 12:08:52;;;;;;;5.03;2.97;;;37.00;27.80;;;;;;5051456;28;20070;-59
2022/03/30 12:11:23;;;;;;;3.35;3.03;;;37.20;27.70;;;;;;5052870;28;20139;-59
2022/03/30 12:13:51;;;;;;;4.90;3.03;;;37.30;27.70;;;;;;5054830;28;20021;-60
2022/03/30 12:16:17;;;;;;;3.95;2.90;;;37.10;27.70;;;;;;5054515;28;20037;-60
2022/03/30 12:18:51;;;;;;;3.58;2.55;;;36.70;27.70;;;;;;5054291;28;20134;-60
2022/03/30 12:21:23;;;;;;;8.02;3.90;;;36.50;27.40;;;;;;5053525;28;20465;-60
2022/03/30 12:24:01;;;;;;;4.00;3.15;;;35.60;27.40;;;;;;5047814;28;20063;-59
2022/03/30 12:26:27;;;;;;;4.10;3.50;;;35.90;27.70;;;;;;5051446;28;20104;-59
2022/03/30 12:29:06;;;;;;;5.38;3.17;;;36.50;27.30;;;;;;5049597;28;20078;-60
2022/03/30 12:31:36;;;;;;;3.35;2.65;;;36.70;27.00;;;;;;5046928;28;20037;-59
2022/03/30 12:34:09;;;;;;;5.15;3.88;;;36.70;27.10;;;;;;5049767;28;20465;-59
2022/03/30 12:36:40;;;;;;;5.50;4.00;;;36.80;27.00;;;;;;5049601;28;20078;-60
2022/03/30 12:39:18;;;;;;;4.65;3.33;;;37.00;26.60;;;;;;5052358;28;20025;-60
2022/03/30 12:41:43;;;;;;;4.72;3.60;;;36.80;26.70;;;;;;5053486;28;20032;-59
2022/03/30 12:44:09;;;;;;;5.18;3.17;;;36.30;26.70;;;;;;5054020;28;20021;-60
2022/03/30 12:46:36;;;;;;;6.25;3.40;;;35.90;27.00;;;;;;5053894;28;20032;-59
2022/03/30 12:49:06;;;;;;;5.30;3.72;;;35.20;26.90;;;;;;5054065;28;20036;-59
2022/03/30 12:51:36;;;;;;;4.30;3.65;;;35.20;27.30;;;;;;5052790;28;20175;-60
2022/03/30 12:54:03;;;;;;;5.93;3.60;;;35.50;27.20;;;;;;5053891;28;20029;-60
2022/03/30 12:56:29;;;;;;;5.43;3.50;;;35.80;27.20;;;;;;5053915;28;20028;-60
2022/03/30 12:59:04;;;;;;;5.53;3.40;;;36.20;27.00;;;;;;5052154;28;20021;-60